FR-0236 weather

Magland Heliport
Magland, Rhône Alpes, France

Public forecast

Using degrees Celsius for public forecast. Weather courtesy of forecast.io.

METAR (pilot weather report)

Closest report is Annecy-Haute-Savoie-Mont Blanc Airport, 25.7 nm (47.5 km) W. Retrieved 2019/07/23 14:30 UTC (30 minutes ago):

LFLP 231430Z AUTO 20004KT 140V250 CAVOK 36/09 Q1018 NOSIG

TAF (pilot weather forecast)

Closest forecast is Annecy-Haute-Savoie-Mont Blanc Airport, 25.7 nm (47.5 km) W. Retrieved 2019/07/23 15:00 UTC (0 seconds ago):

TAF LFLP 231400Z 2315/2415 25005KT CAVOK TEMPO 2320/2413 VRB02KT BECMG 2413/2415 36006KT